Time;durP1;ratioP1;P1;durP2;ratioP2;P2;SDS_P1;SDS_P2;PMS_P1;PMS_P2;Temp;Humidity;BMP_temperature;BMP_pressure;BME280_temperature;BME280_humidity;BME280_pressure;Samples;Min_cycle;Max_cycle;Signal;HPM_P1;HPM_P2
2023/09/11 00:01:18;;;;;;;23.65;16.38;;;20.50;99.90;;;;;;5026006;28;20095;-77
2023/09/11 00:03:44;;;;;;;29.73;16.55;;;20.50;99.90;;;;;;5048250;28;20064;-77
2023/09/11 00:06:10;;;;;;;27.52;16.67;;;20.50;99.90;;;;;;5031751;28;20048;-77
2023/09/11 00:08:35;;;;;;;28.98;17.48;;;20.50;99.90;;;;;;5019958;28;20123;-77
2023/09/11 00:11:02;;;;;;;32.25;17.17;;;20.40;99.90;;;;;;5017029;28;20140;-77
2023/09/11 00:13:28;;;;;;;27.85;17.98;;;20.40;99.90;;;;;;5028865;28;20186;-76
2023/09/11 00:15:54;;;;;;;32.22;18.38;;;20.50;99.90;;;;;;5024527;28;20254;-77
2023/09/11 00:18:20;;;;;;;31.85;17.30;;;20.40;99.90;;;;;;5042185;28;20041;-76
2023/09/11 00:20:45;;;;;;;31.45;17.60;;;20.40;99.90;;;;;;5030919;28;20060;-76
2023/09/11 00:23:11;;;;;;;31.30;17.38;;;20.40;99.90;;;;;;5031781;28;20080;-76
2023/09/11 00:25:37;;;;;;;28.67;17.27;;;20.40;99.90;;;;;;5024438;28;20053;-77
2023/09/11 00:28:03;;;;;;;32.35;18.92;;;20.30;99.90;;;;;;5045228;28;20142;-77
2023/09/11 00:30:28;;;;;;;28.83;17.13;;;20.30;99.90;;;;;;5045853;28;20112;-76
2023/09/11 00:32:54;;;;;;;29.13;18.23;;;20.30;99.90;;;;;;5030993;28;20545;-77
2023/09/11 00:35:20;;;;;;;32.85;18.45;;;20.30;99.90;;;;;;5048924;28;20112;-77
2023/09/11 00:37:46;;;;;;;33.58;18.38;;;20.30;99.90;;;;;;5059639;28;20365;-77
2023/09/11 00:40:11;;;;;;;31.30;17.98;;;20.40;99.90;;;;;;5050179;28;20051;-77
2023/09/11 00:42:37;;;;;;;25.58;17.10;;;20.40;99.90;;;;;;5033663;28;20045;-77
2023/09/11 00:45:03;;;;;;;32.22;18.17;;;20.30;99.90;;;;;;5033021;28;20411;-77
2023/09/11 00:47:29;;;;;;;34.30;18.45;;;20.30;99.90;;;;;;5043783;28;20041;-78
2023/09/11 00:49:57;;;;;;;22.83;16.70;;;20.40;99.90;;;;;;5025849;28;20049;-77
2023/09/11 00:52:23;;;;;;;27.05;17.92;;;20.40;99.90;;;;;;5021514;28;20629;-77
2023/09/11 00:54:52;;;;;;;27.50;17.80;;;20.40;99.90;;;;;;5036389;28;20036;-78
2023/09/11 00:57:18;;;;;;;26.70;17.58;;;20.40;99.90;;;;;;5025918;28;20053;-77
2023/09/11 00:59:48;;;;;;;26.45;17.70;;;20.40;99.90;;;;;;5048175;28;20036;-78
2023/09/11 01:02:15;;;;;;;25.83;17.80;;;20.30;99.90;;;;;;5031303;28;20519;-77
2023/09/11 01:04:42;;;;;;;33.97;19.25;;;20.30;99.90;;;;;;5035939;28;20103;-77
2023/09/11 01:07:07;;;;;;;31.98;18.45;;;20.30;99.90;;;;;;5040182;28;20504;-78
2023/09/11 01:09:34;;;;;;;31.88;19.15;;;20.30;99.90;;;;;;5032001;28;20130;-78
2023/09/11 01:12:00;;;;;;;31.75;19.48;;;20.30;99.90;;;;;;5030646;28;20081;-76
2023/09/11 01:14:27;;;;;;;24.45;17.50;;;20.30;99.90;;;;;;5032365;28;20076;-77
2023/09/11 01:17:12;;;;;;;29.80;17.55;;;20.30;99.90;;;;;;5029321;28;20040;-76
2023/09/11 01:20:15;;;;;;;27.30;17.77;;;20.30;99.90;;;;;;5025782;28;20041;-76
2023/09/11 01:22:44;;;;;;;32.38;18.25;;;20.20;99.90;;;;;;5012658;28;20514;-76
2023/09/11 01:25:20;;;;;;;26.58;18.42;;;20.20;99.90;;;;;;5049695;28;20053;-77
2023/09/11 01:28:00;;;;;;;29.75;18.63;;;20.20;99.90;;;;;;5029358;28;20123;-76
2023/09/11 01:30:26;;;;;;;31.17;18.83;;;20.10;99.90;;;;;;5027273;28;20045;-77
2023/09/11 01:32:53;;;;;;;30.05;19.02;;;20.10;99.90;;;;;;5030528;28;20124;-77
2023/09/11 01:35:20;;;;;;;29.75;20.13;;;20.10;99.90;;;;;;5036474;28;20056;-76
2023/09/11 01:37:46;;;;;;;32.80;19.83;;;20.10;99.90;;;;;;5046271;28;20048;-77
2023/09/11 01:40:11;;;;;;;33.42;18.60;;;20.10;99.90;;;;;;5032233;28;20144;-77
2023/09/11 01:42:43;;;;;;;31.17;18.83;;;20.10;99.90;;;;;;5034312;28;20112;-76
2023/09/11 01:45:13;;;;;;;28.63;18.42;;;20.00;99.90;;;;;;5028857;28;20037;-76
2023/09/11 01:47:39;;;;;;;31.17;19.38;;;20.10;99.90;;;;;;5018018;28;20059;-76
2023/09/11 01:50:06;;;;;;;27.00;18.38;;;20.00;99.90;;;;;;5044165;28;20623;-76
2023/09/11 01:52:34;;;;;;;33.00;19.77;;;20.10;99.90;;;;;;5058410;28;20058;-76
2023/09/11 01:55:04;;;;;;;32.55;17.92;;;20.00;99.90;;;;;;5034993;28;20041;-77
2023/09/11 01:57:30;;;;;;;29.95;17.67;;;20.00;99.90;;;;;;5032205;28;20048;-77
2023/09/11 01:59:55;;;;;;;27.58;18.17;;;20.00;99.90;;;;;;5033390;28;20048;-77
2023/09/11 02:02:21;;;;;;;26.35;18.52;;;20.00;99.90;;;;;;5035823;28;20087;-77
2023/09/11 02:04:47;;;;;;;35.58;19.25;;;20.00;99.90;;;;;;5039248;28;20033;-77
2023/09/11 02:07:12;;;;;;;30.58;18.73;;;20.00;99.90;;;;;;5019613;28;20041;-77
2023/09/11 02:09:38;;;;;;;33.22;19.33;;;20.00;99.90;;;;;;5030398;28;20136;-77
2023/09/11 02:12:04;;;;;;;32.28;19.25;;;20.00;99.90;;;;;;5049865;28;20044;-77
2023/09/11 02:14:30;;;;;;;29.30;18.55;;;20.00;99.90;;;;;;5028305;28;20041;-77
2023/09/11 02:17:02;;;;;;;27.65;19.00;;;20.00;99.90;;;;;;5045377;28;20053;-77
2023/09/11 02:19:31;;;;;;;28.70;18.88;;;20.00;99.90;;;;;;5026978;28;20045;-76
2023/09/11 02:21:57;;;;;;;31.42;18.55;;;20.00;99.90;;;;;;5047273;28;20056;-76
2023/09/11 02:24:23;;;;;;;35.65;19.10;;;20.10;99.90;;;;;;5027611;28;20029;-76
2023/09/11 02:26:50;;;;;;;33.33;18.77;;;20.10;99.90;;;;;;5045866;28;20160;-77
2023/09/11 02:29:15;;;;;;;33.53;19.05;;;20.10;99.90;;;;;;5025409;28;20052;-76
2023/09/11 02:31:41;;;;;;;26.58;17.48;;;20.00;99.90;;;;;;5013558;28;20495;-77
2023/09/11 02:34:06;;;;;;;31.13;18.77;;;20.10;99.90;;;;;;5026353;28;20135;-76
2023/09/11 02:36:32;;;;;;;30.17;18.50;;;20.10;99.90;;;;;;5044907;28;20040;-76
2023/09/11 02:38:58;;;;;;;33.63;18.25;;;20.20;99.90;;;;;;5047381;28;20045;-76
2023/09/11 02:41:23;;;;;;;26.73;17.90;;;20.20;99.90;;;;;;5048155;28;20034;-76
2023/09/11 02:43:49;;;;;;;29.10;17.73;;;20.10;99.90;;;;;;5040843;28;20107;-76
2023/09/11 02:46:15;;;;;;;26.38;16.98;;;20.20;99.90;;;;;;5011772;28;20053;-75
2023/09/11 02:48:48;;;;;;;26.55;17.67;;;20.20;99.90;;;;;;5028626;28;20413;-76
2023/09/11 02:51:14;;;;;;;32.13;17.95;;;20.20;99.90;;;;;;5054688;28;20056;-78
2023/09/11 02:53:40;;;;;;;23.63;16.92;;;20.10;99.90;;;;;;5039819;28;20072;-76
2023/09/11 02:56:06;;;;;;;31.83;17.90;;;20.20;99.90;;;;;;5038664;28;20138;-76
2023/09/11 02:58:32;;;;;;;25.50;16.98;;;20.10;99.90;;;;;;5011867;28;20056;-77
2023/09/11 03:01:05;;;;;;;24.60;18.48;;;20.10;99.90;;;;;;5045204;28;20079;-76
2023/09/11 03:03:31;;;;;;;26.35;17.77;;;20.20;99.90;;;;;;5040824;28;20048;-76
2023/09/11 03:06:01;;;;;;;27.95;17.95;;;20.10;99.90;;;;;;5046334;28;20680;-76
2023/09/11 03:08:28;;;;;;;23.90;17.10;;;20.20;99.90;;;;;;5047200;28;20049;-77
2023/09/11 03:10:54;;;;;;;32.25;19.02;;;20.10;99.90;;;;;;5047718;28;20045;-77
2023/09/11 03:13:19;;;;;;;30.85;18.60;;;20.10;99.90;;;;;;5048159;28;20140;-77
2023/09/11 03:15:45;;;;;;;26.52;18.00;;;20.10;99.90;;;;;;5042405;28;20043;-77
2023/09/11 03:18:12;;;;;;;31.63;18.83;;;20.10;99.90;;;;;;5042425;28;20128;-78
2023/09/11 03:20:38;;;;;;;29.83;18.73;;;20.10;99.90;;;;;;5044331;28;20083;-78
2023/09/11 03:23:04;;;;;;;27.08;17.98;;;20.00;99.90;;;;;;5024189;28;20480;-77
2023/09/11 03:25:34;;;;;;;29.40;19.55;;;20.10;99.90;;;;;;5011255;28;20037;-77
2023/09/11 03:28:00;;;;;;;27.38;17.73;;;20.10;99.90;;;;;;5041315;28;20741;-77
2023/09/11 03:30:26;;;;;;;29.00;19.83;;;20.10;99.90;;;;;;5045347;28;20043;-77
2023/09/11 03:32:51;;;;;;;28.45;18.88;;;20.10;99.90;;;;;;5049252;28;20041;-77
2023/09/11 03:35:17;;;;;;;29.33;19.15;;;20.10;99.90;;;;;;5036005;28;20040;-77
2023/09/11 03:37:43;;;;;;;32.78;18.77;;;20.00;99.90;;;;;;5032816;28;20433;-77
2023/09/11 03:40:13;;;;;;;22.85;18.63;;;20.00;99.90;;;;;;5029294;28;20055;-77
2023/09/11 03:42:39;;;;;;;32.65;19.67;;;20.10;99.90;;;;;;5024927;28;20427;-77
2023/09/11 03:45:07;;;;;;;27.58;18.35;;;20.10;99.90;;;;;;5027628;28;20088;-77
2023/09/11 03:47:33;;;;;;;27.52;19.30;;;20.10;99.90;;;;;;5028539;28;20709;-78
2023/09/11 03:49:58;;;;;;;28.08;19.90;;;20.00;99.90;;;;;;5013974;28;20076;-77
2023/09/11 03:52:24;;;;;;;30.95;19.25;;;20.10;99.90;;;;;;5040470;28;21073;-77
2023/09/11 03:54:50;;;;;;;37.75;20.63;;;20.10;99.90;;;;;;5045466;28;20037;-77
2023/09/11 03:57:15;;;;;;;27.10;19.25;;;20.10;99.90;;;;;;5044010;28;20053;-77
2023/09/11 03:59:41;;;;;;;27.05;19.60;;;20.10;99.90;;;;;;5049152;28;20038;-77
2023/09/11 04:02:07;;;;;;;31.27;18.60;;;20.10;99.90;;;;;;5030276;28;20043;-77
2023/09/11 04:04:32;;;;;;;29.55;20.15;;;20.20;99.90;;;;;;5020962;28;20037;-77
2023/09/11 04:06:58;;;;;;;30.85;20.48;;;20.10;99.90;;;;;;5015013;28;20108;-77
2023/09/11 04:09:24;;;;;;;29.27;19.58;;;20.10;99.90;;;;;;5037376;28;20043;-76
2023/09/11 04:11:49;;;;;;;30.40;18.90;;;20.20;99.90;;;;;;5012851;28;20065;-75
2023/09/11 04:14:15;;;;;;;28.58;20.67;;;20.20;99.90;;;;;;5048444;28;20037;-76
2023/09/11 04:16:42;;;;;;;33.65;20.98;;;20.10;99.90;;;;;;5042830;28;20048;-76
2023/09/11 04:19:08;;;;;;;28.67;20.15;;;20.10;99.90;;;;;;5048720;28;20048;-77
2023/09/11 04:21:34;;;;;;;33.25;20.40;;;20.20;99.90;;;;;;5029534;28;20114;-77
2023/09/11 04:24:00;;;;;;;33.65;21.45;;;20.10;99.90;;;;;;5049542;28;20491;-77
2023/09/11 04:26:25;;;;;;;34.05;20.23;;;20.20;99.90;;;;;;5044198;28;20063;-78
2023/09/11 04:28:51;;;;;;;35.03;19.83;;;20.20;99.90;;;;;;5045871;28;20052;-77
2023/09/11 04:31:16;;;;;;;33.85;20.65;;;20.20;99.90;;;;;;5040767;28;20060;-78
2023/09/11 04:33:42;;;;;;;32.67;20.35;;;20.20;99.90;;;;;;5047603;28;20403;-76
2023/09/11 04:36:08;;;;;;;29.60;20.58;;;20.10;99.90;;;;;;5045029;28;20406;-76
2023/09/11 04:38:34;;;;;;;27.10;21.10;;;20.20;99.90;;;;;;5048454;28;20033;-74
2023/09/11 04:40:59;;;;;;;27.10;19.80;;;20.10;99.90;;;;;;5058065;28;20067;-75
2023/09/11 04:43:25;;;;;;;32.22;17.45;;;20.10;99.90;;;;;;5048843;28;20047;-75
2023/09/11 04:45:51;;;;;;;32.47;19.63;;;20.20;99.90;;;;;;5052972;28;20409;-74
2023/09/11 04:48:17;;;;;;;24.83;20.20;;;20.20;99.90;;;;;;5028093;28;20068;-76
2023/09/11 04:50:42;;;;;;;29.75;20.55;;;20.10;99.90;;;;;;5039653;28;20052;-76
2023/09/11 04:53:08;;;;;;;28.67;19.48;;;20.10;99.90;;;;;;5042949;28;20190;-76
2023/09/11 04:55:34;;;;;;;35.33;21.88;;;20.00;99.90;;;;;;5044902;28;20486;-75
2023/09/11 04:57:59;;;;;;;31.55;21.23;;;20.00;99.90;;;;;;5045751;28;20324;-76
2023/09/11 05:00:26;;;;;;;31.88;21.33;;;20.00;99.90;;;;;;5049456;28;20053;-74
2023/09/11 05:02:52;;;;;;;29.23;21.92;;;20.00;99.90;;;;;;5030942;28;20045;-75
2023/09/11 05:05:18;;;;;;;29.70;21.67;;;19.90;99.90;;;;;;5041368;28;20067;-75
2023/09/11 05:07:43;;;;;;;31.50;22.73;;;19.90;99.90;;;;;;5042559;28;20049;-75
2023/09/11 05:10:09;;;;;;;38.33;22.70;;;19.90;99.90;;;;;;5045340;28;20040;-76
2023/09/11 05:12:35;;;;;;;30.70;22.15;;;19.80;99.90;;;;;;5049114;28;20044;-75
2023/09/11 05:15:01;;;;;;;36.22;24.20;;;19.80;99.90;;;;;;5042684;28;20039;-76
2023/09/11 05:17:27;;;;;;;31.67;22.08;;;19.80;99.90;;;;;;5045900;28;20504;-77
2023/09/11 05:19:53;;;;;;;33.80;23.60;;;19.80;99.90;;;;;;5043329;28;20045;-75
2023/09/11 05:22:19;;;;;;;30.08;21.52;;;19.70;99.90;;;;;;5050575;28;20040;-73
2023/09/11 05:24:44;;;;;;;33.53;22.95;;;19.80;99.90;;;;;;5049015;28;20072;-74
2023/09/11 05:27:10;;;;;;;27.80;22.25;;;19.70;99.90;;;;;;5048502;28;20122;-80
2023/09/11 05:29:36;;;;;;;29.27;22.88;;;19.70;99.90;;;;;;5038760;28;20043;-80
2023/09/11 05:32:02;;;;;;;38.20;24.08;;;19.70;99.90;;;;;;5041013;28;20086;-76
2023/09/11 05:34:28;;;;;;;27.25;22.88;;;19.80;99.90;;;;;;5042900;28;20036;-75
2023/09/11 05:36:54;;;;;;;36.55;23.67;;;19.70;99.90;;;;;;5039233;28;20041;-76
2023/09/11 05:39:20;;;;;;;32.22;23.17;;;19.70;99.90;;;;;;5043181;28;20129;-76
2023/09/11 05:41:45;;;;;;;37.03;22.38;;;19.70;99.90;;;;;;5053211;28;20037;-75
2023/09/11 05:44:12;;;;;;;33.75;23.98;;;19.80;99.90;;;;;;5043582;28;20492;-72
2023/09/11 05:46:38;;;;;;;35.53;24.00;;;19.70;99.90;;;;;;5044089;28;20075;-73
2023/09/11 05:49:03;;;;;;;32.42;23.55;;;19.70;99.90;;;;;;5036131;28;20045;-73
2023/09/11 05:51:29;;;;;;;38.80;23.23;;;19.80;99.90;;;;;;5047678;28;20042;-73
2023/09/11 05:53:55;;;;;;;32.58;23.48;;;19.90;99.90;;;;;;5047060;28;20055;-72
2023/09/11 05:56:20;;;;;;;34.75;23.38;;;19.90;99.90;;;;;;5029658;28;20045;-72
2023/09/11 05:58:46;;;;;;;30.80;22.73;;;20.00;99.90;;;;;;5047688;28;20060;-72
2023/09/11 06:01:13;;;;;;;36.10;22.42;;;20.00;99.90;;;;;;5047255;28;20041;-72
2023/09/11 06:03:39;;;;;;;34.47;22.02;;;20.10;99.90;;;;;;5048267;28;20099;-71
2023/09/11 06:06:05;;;;;;;30.55;21.88;;;20.20;99.90;;;;;;5047531;28;20065;-71
2023/09/11 06:08:32;;;;;;;32.45;22.77;;;20.30;99.90;;;;;;5048557;28;20116;-71
2023/09/11 06:10:59;;;;;;;34.10;22.05;;;20.40;99.90;;;;;;5043707;28;20541;-73
2023/09/11 06:13:26;;;;;;;28.23;20.35;;;20.50;99.90;;;;;;5020258;28;20059;-72
2023/09/11 06:15:51;;;;;;;33.08;22.63;;;20.60;99.90;;;;;;5053265;28;20099;-72
2023/09/11 06:18:17;;;;;;;32.42;22.80;;;20.60;99.90;;;;;;5048199;28;20041;-72
2023/09/11 06:20:43;;;;;;;36.08;22.63;;;20.70;99.90;;;;;;5028641;28;20037;-73
2023/09/11 06:23:10;;;;;;;34.67;21.88;;;20.70;99.90;;;;;;5008608;28;20036;-72
2023/09/11 06:25:36;;;;;;;33.00;22.92;;;20.80;99.90;;;;;;5026080;28;20101;-71
2023/09/11 06:28:03;;;;;;;32.88;22.77;;;21.00;99.90;;;;;;5050757;28;20131;-71
2023/09/11 06:30:31;;;;;;;28.73;22.90;;;21.10;99.90;;;;;;5025291;28;20041;-76
2023/09/11 06:32:59;;;;;;;33.97;22.52;;;21.20;99.90;;;;;;5028756;28;20095;-82
2023/09/11 06:35:25;;;;;;;30.70;22.30;;;21.40;99.90;;;;;;5027352;28;20042;-83
2023/09/11 06:37:51;;;;;;;29.90;21.67;;;21.50;99.90;;;;;;4997793;28;20087;-83
2023/09/11 06:40:16;;;;;;;30.08;21.73;;;21.60;99.90;;;;;;5054465;28;20075;-80
2023/09/11 06:42:42;;;;;;;30.52;22.70;;;21.70;99.90;;;;;;5047966;28;20048;-80
2023/09/11 06:45:08;;;;;;;33.15;21.38;;;21.90;99.90;;;;;;5041337;28;20047;-86
2023/09/11 06:47:34;;;;;;;35.97;22.48;;;22.00;99.90;;;;;;5029070;28;20672;-84
2023/09/11 06:50:00;;;;;;;27.50;22.17;;;22.00;99.90;;;;;;5047770;28;20052;-84
2023/09/11 06:52:26;;;;;;;34.55;21.58;;;22.10;99.90;;;;;;5033734;28;20074;-85
2023/09/11 06:54:53;;;;;;;32.45;23.33;;;22.20;99.90;;;;;;5046837;28;20041;-85
2023/09/11 06:57:19;;;;;;;30.10;21.27;;;22.30;99.90;;;;;;5031605;28;20053;-85
2023/09/11 06:59:45;;;;;;;29.95;21.98;;;22.20;99.90;;;;;;5025826;28;20053;-83
2023/09/11 07:02:10;;;;;;;34.60;22.52;;;22.20;99.90;;;;;;5034640;28;20702;-82
2023/09/11 07:04:36;;;;;;;29.30;21.42;;;22.20;99.90;;;;;;5039742;28;20035;-79
2023/09/11 07:07:02;;;;;;;30.00;22.63;;;22.20;99.90;;;;;;5023328;28;20041;-79
2023/09/11 07:09:27;;;;;;;25.73;21.20;;;22.30;99.90;;;;;;5036060;28;20025;-81
2023/09/11 07:11:53;;;;;;;31.00;21.60;;;22.30;99.90;;;;;;5011919;28;20036;-79
2023/09/11 07:14:19;;;;;;;29.35;21.50;;;22.50;99.90;;;;;;5043289;28;20059;-86
2023/09/11 07:16:45;;;;;;;29.40;22.42;;;22.50;99.90;;;;;;5039977;28;20060;-82
2023/09/11 07:19:11;;;;;;;33.20;22.38;;;22.50;99.90;;;;;;5048833;28;20036;-80
2023/09/11 07:21:37;;;;;;;32.05;23.30;;;22.50;99.90;;;;;;5012167;28;20052;-81
2023/09/11 07:24:03;;;;;;;34.05;23.48;;;22.50;99.90;;;;;;5049757;28;20115;-85
2023/09/11 07:26:28;;;;;;;28.23;24.00;;;22.60;99.90;;;;;;5047175;28;20045;-85
2023/09/11 07:29:02;;;;;;;31.52;24.20;;;22.70;99.90;;;;;;5043974;28;20128;-85
2023/09/11 07:31:29;;;;;;;33.22;25.63;;;22.90;99.90;;;;;;5023644;28;20041;-85
2023/09/11 07:33:55;;;;;;;34.08;25.27;;;23.00;99.90;;;;;;5025655;28;20037;-88
2023/09/11 07:36:21;;;;;;;39.47;26.02;;;23.10;99.90;;;;;;5037725;28;20095;-87
2023/09/11 07:38:47;;;;;;;35.35;25.20;;;23.20;99.90;;;;;;5033599;28;20087;-83
2023/09/11 07:41:15;;;;;;;33.60;26.90;;;23.40;99.90;;;;;;5033678;28;20041;-84
2023/09/11 07:43:42;;;;;;;36.08;25.65;;;23.50;99.90;;;;;;5060671;28;20037;-83
2023/09/11 07:46:08;;;;;;;42.65;28.23;;;23.60;99.90;;;;;;5040902;28;20045;-83
2023/09/11 07:48:35;;;;;;;39.55;26.75;;;23.70;99.90;;;;;;5058274;28;20052;-82
2023/09/11 07:51:01;;;;;;;36.40;26.20;;;23.80;99.90;;;;;;5022362;28;20103;-84
2023/09/11 07:53:26;;;;;;;33.35;25.58;;;23.90;99.90;;;;;;5045007;28;20041;-85
2023/09/11 07:55:52;;;;;;;36.25;26.42;;;24.10;99.90;;;;;;5033322;28;20041;-85
2023/09/11 07:58:18;;;;;;;37.03;22.25;;;24.20;99.90;;;;;;5029627;28;20677;-83
2023/09/11 08:00:43;;;;;;;29.33;20.88;;;24.30;99.90;;;;;;5049400;28;20481;-74
2023/09/11 08:03:09;;;;;;;23.77;18.35;;;24.30;99.90;;;;;;5046603;28;20087;-73
2023/09/11 08:05:35;;;;;;;26.60;18.10;;;24.40;99.90;;;;;;5044240;28;20531;-78
2023/09/11 08:08:02;;;;;;;26.20;17.42;;;24.50;99.90;;;;;;5046932;28;20072;-79
2023/09/11 08:10:28;;;;;;;23.60;17.85;;;24.60;99.90;;;;;;5038312;28;20535;-77
2023/09/11 08:12:54;;;;;;;19.13;16.30;;;24.70;99.90;;;;;;5047917;28;20047;-81
2023/09/11 08:15:20;;;;;;;22.50;17.20;;;24.70;99.90;;;;;;5044796;28;20045;-80
2023/09/11 08:17:46;;;;;;;22.55;17.20;;;24.80;99.90;;;;;;5045352;28;20734;-80
2023/09/11 08:20:12;;;;;;;22.80;15.93;;;24.80;99.90;;;;;;5046349;28;20037;-80
2023/09/11 08:22:39;;;;;;;23.63;17.40;;;24.90;99.90;;;;;;5033485;28;20075;-80
2023/09/11 08:25:05;;;;;;;23.55;16.77;;;24.90;99.90;;;;;;5030569;28;20078;-81
2023/09/11 08:27:31;;;;;;;25.98;18.00;;;25.00;99.90;;;;;;5039872;28;20080;-82
2023/09/11 08:29:57;;;;;;;25.75;17.88;;;25.10;99.90;;;;;;5025107;28;20091;-81
2023/09/11 08:32:23;;;;;;;25.30;17.88;;;25.10;99.90;;;;;;5045749;28;20506;-81
2023/09/11 08:34:49;;;;;;;21.48;16.50;;;25.10;99.90;;;;;;5046974;28;20049;-80
2023/09/11 08:37:15;;;;;;;24.88;18.83;;;25.20;99.90;;;;;;5046371;28;20045;-80
2023/09/11 08:39:40;;;;;;;23.75;18.95;;;25.30;99.90;;;;;;5046240;28;20316;-80
2023/09/11 08:42:08;;;;;;;25.13;19.23;;;25.40;99.90;;;;;;5066248;28;20045;-80
2023/09/11 08:44:34;;;;;;;24.25;18.00;;;25.40;99.90;;;;;;5066376;28;20404;-80
2023/09/11 08:47:03;;;;;;;22.52;18.25;;;25.40;99.90;;;;;;5031417;28;20480;-79
2023/09/11 08:49:33;;;;;;;22.60;18.83;;;25.40;99.90;;;;;;5046320;28;20120;-79
2023/09/11 08:52:03;;;;;;;26.98;21.08;;;25.40;99.90;;;;;;5039518;28;20531;-79
2023/09/11 08:54:34;;;;;;;27.65;21.02;;;25.50;99.90;;;;;;5023748;28;20049;-81
2023/09/11 08:57:02;;;;;;;27.75;20.00;;;25.60;99.90;;;;;;5044691;28;20543;-79
2023/09/11 08:59:29;;;;;;;26.08;21.05;;;25.70;99.90;;;;;;5012902;28;20045;-79
2023/09/11 09:01:56;;;;;;;24.77;19.80;;;25.70;99.90;;;;;;5013590;28;20086;-80
2023/09/11 09:04:24;;;;;;;26.88;19.40;;;25.80;99.90;;;;;;5033113;28;20447;-79
2023/09/11 09:06:51;;;;;;;29.67;19.73;;;25.80;99.90;;;;;;5039183;28;20068;-79
2023/09/11 09:09:18;;;;;;;26.42;19.65;;;25.90;99.90;;;;;;5023329;28;20041;-78
2023/09/11 09:11:48;;;;;;;24.70;18.88;;;25.90;99.90;;;;;;5015907;28;20047;-80
2023/09/11 09:14:18;;;;;;;23.92;18.27;;;26.00;99.90;;;;;;5054564;28;20045;-79
2023/09/11 09:16:48;;;;;;;26.50;18.77;;;26.00;99.90;;;;;;5041596;28;20087;-81
2023/09/11 09:19:13;;;;;;;25.35;17.85;;;26.10;99.90;;;;;;5054460;28;20124;-81
2023/09/11 09:22:07;;;;;;;23.15;19.33;;;26.10;99.90;;;;;;5043265;28;20544;-80
2023/09/11 09:24:33;;;;;;;23.80;18.02;;;26.20;99.90;;;;;;5043695;28;20515;-80
2023/09/11 09:27:00;;;;;;;29.70;20.42;;;26.30;99.90;;;;;;5055837;28;20041;-80
2023/09/11 09:29:26;;;;;;;28.58;19.33;;;26.40;99.90;;;;;;5049709;28;20037;-81
2023/09/11 09:31:52;;;;;;;25.02;19.35;;;26.50;99.90;;;;;;5043077;28;20029;-81
2023/09/11 09:34:18;;;;;;;26.38;21.00;;;26.50;99.90;;;;;;5046441;28;20476;-81
2023/09/11 09:36:52;;;;;;;21.83;19.55;;;26.60;99.90;;;;;;5034294;28;20044;-78
2023/09/11 09:39:18;;;;;;;25.67;18.95;;;26.60;99.90;;;;;;5052063;28;20045;-79
2023/09/11 09:41:56;;;;;;;27.73;18.95;;;26.70;99.90;;;;;;5040959;28;20044;-80
2023/09/11 09:44:39;;;;;;;25.08;19.67;;;26.80;99.90;;;;;;5042412;28;20040;-79
2023/09/11 09:47:15;;;;;;;18.85;16.85;;;26.90;99.90;;;;;;5042825;28;20072;-78
2023/09/11 09:50:01;;;;;;;19.45;14.02;;;27.00;99.90;;;;;;5041388;28;20059;-79
2023/09/11 09:52:28;;;;;;;21.50;14.35;;;27.10;99.90;;;;;;5043485;28;20087;-79
2023/09/11 09:54:59;;;;;;;18.77;14.18;;;27.20;99.90;;;;;;5043699;28;20124;-80
2023/09/11 09:57:26;;;;;;;20.80;11.93;;;27.20;99.90;;;;;;5041653;28;20199;-78
2023/09/11 09:59:58;;;;;;;16.75;11.05;;;27.20;99.90;;;;;;5011391;28;20051;-79
2023/09/11 10:02:27;;;;;;;17.27;10.77;;;27.30;99.90;;;;;;5028850;28;20120;-79
2023/09/11 10:04:56;;;;;;;18.95;12.68;;;27.40;99.90;;;;;;5036386;28;20048;-79
2023/09/11 10:07:45;;;;;;;15.77;10.85;;;27.50;99.90;;;;;;5025515;28;20041;-81
2023/09/11 10:10:22;;;;;;;15.02;11.30;;;27.60;99.90;;;;;;5041719;28;20080;-82
2023/09/11 10:12:53;;;;;;;17.88;11.30;;;27.70;99.90;;;;;;5043947;28;20175;-81
2023/09/11 10:15:20;;;;;;;12.93;9.50;;;27.70;99.90;;;;;;5030215;28;20060;-80
2023/09/11 10:17:46;;;;;;;16.67;11.52;;;27.70;99.90;;;;;;5031593;28;20041;-80
2023/09/11 10:20:12;;;;;;;30.17;12.07;;;27.60;99.90;;;;;;5036231;28;20377;-79
2023/09/11 10:22:38;;;;;;;17.48;8.23;;;27.60;99.90;;;;;;5050253;28;20037;-81
2023/09/11 10:25:04;;;;;;;13.63;9.13;;;27.60;99.90;;;;;;5033660;28;20561;-78
2023/09/11 10:27:31;;;;;;;19.10;12.50;;;27.60;99.90;;;;;;5036019;28;20041;-80
2023/09/11 10:30:06;;;;;;;13.95;10.02;;;27.60;99.90;;;;;;5046642;28;20642;-80
2023/09/11 10:32:42;;;;;;;15.20;10.18;;;27.70;99.90;;;;;;5034014;28;20142;-77
2023/09/11 10:35:09;;;;;;;21.40;11.55;;;27.70;99.90;;;;;;5036153;28;20045;-80
2023/09/11 10:37:38;;;;;;;15.27;10.27;;;27.70;99.90;;;;;;5029106;28;20078;-77
2023/09/11 10:40:06;;;;;;;18.25;11.32;;;27.70;99.90;;;;;;5051871;28;20045;-74
2023/09/11 10:42:31;;;;;;;16.38;10.20;;;27.70;99.90;;;;;;5050288;28;20530;-75
2023/09/11 10:44:57;;;;;;;13.98;9.30;;;27.70;99.90;;;;;;5045166;28;20044;-75
2023/09/11 10:47:23;;;;;;;13.35;8.13;;;27.70;99.90;;;;;;5034299;28;20120;-75
2023/09/11 10:49:49;;;;;;;12.27;7.40;;;27.70;99.90;;;;;;5047005;28;20033;-76
2023/09/11 10:52:16;;;;;;;11.88;7.70;;;27.70;99.90;;;;;;5042995;28;20105;-75
2023/09/11 10:54:42;;;;;;;10.63;6.47;;;27.70;99.90;;;;;;5044985;28;20507;-75
2023/09/11 10:57:08;;;;;;;10.02;6.93;;;27.70;99.90;;;;;;5043438;28;20095;-75
2023/09/11 10:59:34;;;;;;;13.48;6.53;;;27.80;99.90;;;;;;5050432;28;20052;-76
2023/09/11 11:02:01;;;;;;;15.00;6.88;;;27.80;99.90;;;;;;5049077;28;20042;-75
2023/09/11 11:04:31;;;;;;;10.88;5.70;;;27.90;99.90;;;;;;5023375;28;20033;-76
2023/09/11 11:06:58;;;;;;;10.23;4.95;;;27.90;99.90;;;;;;5031010;28;20049;-76
2023/09/11 11:09:35;;;;;;;5.78;4.55;;;27.90;99.90;;;;;;5015696;28;20132;-76
2023/09/11 11:12:13;;;;;;;9.82;5.53;;;28.00;99.90;;;;;;5045625;28;20054;-76
2023/09/11 11:14:38;;;;;;;9.13;5.07;;;27.90;99.90;;;;;;5045763;28;20076;-75
2023/09/11 11:17:10;;;;;;;10.73;5.00;;;28.00;99.90;;;;;;5028346;28;20076;-74
2023/09/11 11:19:50;;;;;;;10.55;5.22;;;28.10;99.90;;;;;;5041653;28;20037;-73
2023/09/11 11:22:38;;;;;;;8.88;4.97;;;28.10;99.90;;;;;;5047214;28;20163;-74
2023/09/11 11:25:08;;;;;;;12.73;5.85;;;28.10;99.90;;;;;;5046480;28;20044;-72
2023/09/11 11:27:34;;;;;;;12.02;6.28;;;28.00;99.90;;;;;;5045835;28;20040;-74
2023/09/11 11:30:00;;;;;;;11.48;6.93;;;28.00;99.90;;;;;;5044927;28;20063;-74
2023/09/11 11:32:26;;;;;;;12.18;7.50;;;28.00;99.90;;;;;;5049653;28;20064;-75
2023/09/11 11:34:54;;;;;;;12.48;7.45;;;28.00;99.90;;;;;;5042485;28;20040;-75
2023/09/11 11:37:21;;;;;;;11.50;6.65;;;27.90;99.90;;;;;;5046909;28;20037;-74
2023/09/11 11:39:48;;;;;;;11.50;6.55;;;27.80;99.90;;;;;;5029491;28;20049;-74
2023/09/11 11:42:15;;;;;;;11.90;6.97;;;27.70;99.90;;;;;;5051457;28;20039;-73
2023/09/11 11:44:41;;;;;;;12.35;6.57;;;27.70;99.90;;;;;;5016314;28;20079;-74
2023/09/11 11:47:07;;;;;;;10.00;6.75;;;27.70;99.90;;;;;;5046842;28;20076;-74
2023/09/11 11:49:35;;;;;;;15.68;7.57;;;27.70;99.90;;;;;;5041147;28;20037;-74
2023/09/11 11:52:03;;;;;;;13.13;7.55;;;27.70;99.90;;;;;;5045736;28;20041;-74
2023/09/11 11:54:29;;;;;;;13.88;8.00;;;27.70;99.90;;;;;;5048058;28;20033;-74
2023/09/11 11:56:56;;;;;;;11.48;7.68;;;27.60;99.90;;;;;;5050008;28;20041;-75
2023/09/11 11:59:22;;;;;;;11.70;7.22;;;27.60;99.90;;;;;;5037035;28;20083;-75
2023/09/11 12:01:48;;;;;;;13.68;8.55;;;27.50;99.90;;;;;;5036925;28;20064;-75
2023/09/11 12:04:13;;;;;;;15.90;9.77;;;27.50;99.90;;;;;;5043720;28;20491;-74
2023/09/11 12:06:39;;;;;;;14.05;9.13;;;27.50;99.90;;;;;;5042022;28;20691;-74
2023/09/11 12:09:05;;;;;;;14.90;10.07;;;27.60;99.90;;;;;;5045063;28;20049;-75
2023/09/11 12:11:31;;;;;;;13.93;9.70;;;27.60;99.90;;;;;;5037264;28;20045;-74
2023/09/11 12:13:57;;;;;;;14.50;9.60;;;27.50;99.90;;;;;;5033319;28;20045;-75
2023/09/11 12:16:22;;;;;;;15.07;11.25;;;27.60;99.90;;;;;;5041941;28;20086;-74
2023/09/11 12:18:48;;;;;;;20.23;10.43;;;27.50;99.90;;;;;;5024591;28;20036;-73
2023/09/11 12:21:14;;;;;;;14.43;9.20;;;27.40;99.90;;;;;;5047628;28;20025;-74
2023/09/11 12:23:39;;;;;;;18.45;11.13;;;27.40;99.90;;;;;;5041165;28;20041;-74
2023/09/11 12:26:05;;;;;;;13.75;9.13;;;27.40;99.90;;;;;;5053227;28;20489;-74
2023/09/11 12:28:32;;;;;;;14.98;9.60;;;27.40;99.90;;;;;;5042993;28;20472;-74